createdAt,value
2022-11-13T00:02:43.623Z,10.70
2022-11-13T00:05:29.235Z,10.70
2022-11-13T00:08:15.146Z,10.70
2022-11-13T00:11:02.945Z,10.70
2022-11-13T00:13:49.513Z,10.70
2022-11-13T00:16:34.849Z,10.70
2022-11-13T00:19:20.619Z,10.70
2022-11-13T00:22:05.747Z,10.80
2022-11-13T00:24:51.947Z,10.80
2022-11-13T00:27:37.543Z,10.80
2022-11-13T00:49:58.786Z,10.80
2022-11-13T00:52:44.803Z,10.80
2022-11-13T00:55:31.387Z,10.80
2022-11-13T00:58:17.730Z,10.70
2022-11-13T01:01:07.358Z,10.80
2022-11-13T01:03:53.597Z,10.80
2022-11-13T01:06:42.364Z,10.80
2022-11-13T01:09:28.609Z,10.80
2022-11-13T01:12:14.871Z,10.80
2022-11-13T01:15:01.693Z,10.80
2022-11-13T01:17:57.700Z,10.80
2022-11-13T01:20:46.477Z,10.70
2022-11-13T01:23:33.048Z,10.70
2022-11-13T01:26:25.361Z,10.70
2022-11-13T01:29:12.937Z,10.70
2022-11-13T01:31:58.900Z,10.60
2022-11-13T01:34:44.669Z,10.60
2022-11-13T01:37:33.348Z,10.60
2022-11-13T01:40:19.543Z,10.50
2022-11-13T01:43:34.495Z,10.50
2022-11-13T01:46:29.802Z,10.50
2022-11-13T01:49:29.160Z,10.50
2022-11-13T01:52:37.711Z,10.50
2022-11-13T01:55:24.130Z,10.40
2022-11-13T01:58:14.977Z,10.40
2022-11-13T02:01:01.434Z,10.40
2022-11-13T02:03:47.400Z,10.40
2022-11-13T02:06:59.968Z,10.40
2022-11-13T02:09:55.533Z,10.40
2022-11-13T02:12:46.736Z,10.40
2022-11-13T02:15:35.681Z,10.40
2022-11-13T02:18:22.893Z,10.30
2022-11-13T02:21:24.135Z,10.30
2022-11-13T02:24:28.555Z,10.30
2022-11-13T02:27:28.618Z,10.30
2022-11-13T02:30:30.230Z,10.30
2022-11-13T02:33:23.921Z,10.30
2022-11-13T02:36:12.212Z,10.20
2022-11-13T02:39:05.220Z,10.20
2022-11-13T02:41:54.094Z,10.30
2022-11-13T02:44:40.006Z,10.20
2022-11-13T02:47:26.864Z,10.20
2022-11-13T02:50:16.874Z,10.20
2022-11-13T02:53:03.328Z,10.20
2022-11-13T02:55:49.904Z,10.20
2022-11-13T02:58:36.069Z,10.20
2022-11-13T03:01:22.198Z,10.20
2022-11-13T03:04:10.431Z,10.20
2022-11-13T03:06:59.558Z,10.20
2022-11-13T03:09:48.738Z,10.20
2022-11-13T03:12:34.855Z,10.20
2022-11-13T03:15:20.589Z,10.20
2022-11-13T03:18:12.236Z,10.20
2022-11-13T03:20:57.899Z,10.20
2022-11-13T03:23:47.308Z,10.20
2022-11-13T03:26:33.579Z,10.20
2022-11-13T03:29:19.354Z,10.20
2022-11-13T03:32:06.831Z,10.20
2022-11-13T03:34:58.601Z,10.20
2022-11-13T03:37:47.259Z,10.20
2022-11-13T03:40:33.515Z,10.20
2022-11-13T03:43:22.381Z,10.20
2022-11-13T03:46:09.146Z,10.20
2022-11-13T03:48:55.398Z,10.20
2022-11-13T03:51:42.110Z,10.30
2022-11-13T03:54:28.188Z,10.20
2022-11-13T03:57:14.302Z,10.20
2022-11-13T04:00:00.317Z,10.30
2022-11-13T04:02:49.064Z,10.30
2022-11-13T04:05:37.294Z,10.30
2022-11-13T04:08:23.102Z,10.30
2022-11-13T04:11:13.474Z,10.30
2022-11-13T04:13:59.070Z,10.30
2022-11-13T04:16:44.723Z,10.30
2022-11-13T04:19:30.788Z,10.30
2022-11-13T04:22:17.783Z,10.30
2022-11-13T04:25:07.337Z,10.30
2022-11-13T04:27:53.859Z,10.30
2022-11-13T04:30:39.941Z,10.30
2022-11-13T04:33:27.587Z,10.30
2022-11-13T04:36:13.999Z,10.30
2022-11-13T04:38:59.854Z,10.30
2022-11-13T04:42:06.300Z,10.40
2022-11-13T04:44:52.068Z,10.30
2022-11-13T04:47:41.043Z,10.40
2022-11-13T04:50:27.380Z,10.40
2022-11-13T04:53:13.083Z,10.40
2022-11-13T04:55:58.833Z,10.40
2022-11-13T04:58:44.481Z,10.40
2022-11-13T05:01:32.411Z,10.30
2022-11-13T05:04:20.076Z,10.30
2022-11-13T05:07:08.043Z,10.30
2022-11-13T05:09:54.343Z,10.30
2022-11-13T05:12:39.948Z,10.30
2022-11-13T05:15:26.771Z,10.30
2022-11-13T05:18:12.351Z,10.20
2022-11-13T05:20:58.196Z,10.30
2022-11-13T05:23:43.777Z,10.30
2022-11-13T05:26:29.731Z,10.20
2022-11-13T05:29:15.581Z,10.30
2022-11-13T05:32:01.422Z,10.30
2022-11-13T05:34:47.287Z,10.30
2022-11-13T05:37:33.552Z,10.30
2022-11-13T05:40:19.229Z,10.30
2022-11-13T05:43:05.364Z,10.30
2022-11-13T05:45:51.319Z,10.30
2022-11-13T05:48:37.451Z,10.30
2022-11-13T05:51:30.586Z,10.40
2022-11-13T05:54:17.001Z,10.40
2022-11-13T05:57:03.601Z,10.40
2022-11-13T05:59:49.397Z,10.30
2022-11-13T06:02:35.775Z,10.30
2022-11-13T06:05:22.407Z,10.30
2022-11-13T06:08:09.199Z,10.30
2022-11-13T06:11:02.930Z,10.30
2022-11-13T06:13:49.608Z,10.30
2022-11-13T06:16:37.730Z,10.30
2022-11-13T06:19:23.824Z,10.20
2022-11-13T06:22:09.728Z,10.20
2022-11-13T06:24:55.925Z,10.20
2022-11-13T06:27:42.109Z,10.20
2022-11-13T06:30:28.229Z,10.20
2022-11-13T06:33:13.820Z,10.20
2022-11-13T06:36:05.622Z,10.10
2022-11-13T06:38:52.481Z,10.10
2022-11-13T06:41:40.493Z,10.10
2022-11-13T06:44:26.415Z,10.10
2022-11-13T06:47:14.781Z,10.10
2022-11-13T06:50:00.711Z,10.10
2022-11-13T06:52:46.290Z,10.10
2022-11-13T06:55:34.313Z,10.10
2022-11-13T06:58:20.125Z,10.00
2022-11-13T07:01:07.420Z,10.00
2022-11-13T07:03:56.697Z,10.00
2022-11-13T07:06:42.431Z,10.00
2022-11-13T07:09:30.881Z,10.00
2022-11-13T07:12:19.482Z,10.00
2022-11-13T07:15:05.704Z,10.00
2022-11-13T07:17:51.881Z,10.00
2022-11-13T07:20:37.320Z,10.00
2022-11-13T07:23:22.846Z,10.00
2022-11-13T07:26:12.126Z,10.10
2022-11-13T07:28:58.131Z,10.10
2022-11-13T07:31:43.779Z,10.20
2022-11-13T07:34:32.591Z,10.30
2022-11-13T07:37:19.621Z,10.30
2022-11-13T07:40:08.115Z,10.40
2022-11-13T07:42:59.411Z,10.50
2022-11-13T07:45:45.507Z,10.50
2022-11-13T07:48:32.213Z,10.60
2022-11-13T07:51:18.716Z,10.60
2022-11-13T07:54:04.582Z,10.70
2022-11-13T07:56:50.405Z,10.70
2022-11-13T07:59:37.621Z,10.70
2022-11-13T08:02:26.467Z,10.80
2022-11-13T08:05:12.401Z,10.90
2022-11-13T08:07:58.330Z,10.90
2022-11-13T08:10:43.964Z,11.00
2022-11-13T08:13:29.971Z,11.00
2022-11-13T08:16:16.083Z,11.10
2022-11-13T08:19:03.201Z,11.10
2022-11-13T08:21:50.688Z,11.20
2022-11-13T08:24:36.530Z,11.20
2022-11-13T08:27:23.138Z,11.30
2022-11-13T08:30:09.358Z,11.40
2022-11-13T08:32:55.247Z,11.40
2022-11-13T08:35:42.682Z,11.50
2022-11-13T08:38:29.265Z,11.60
2022-11-13T08:41:15.484Z,11.70
2022-11-13T08:44:01.811Z,11.80
2022-11-13T08:46:48.606Z,11.80
2022-11-13T08:49:34.193Z,11.80
2022-11-13T08:52:23.496Z,11.90
2022-11-13T08:55:09.291Z,12.00
2022-11-13T08:57:59.478Z,12.10
2022-11-13T09:00:47.642Z,12.10
2022-11-13T09:03:36.456Z,12.20
2022-11-13T09:06:23.203Z,12.30
2022-11-13T09:09:09.434Z,12.40
2022-11-13T09:11:55.167Z,12.40
2022-11-13T09:14:40.869Z,12.40
2022-11-13T09:17:27.146Z,12.50
2022-11-13T09:20:14.262Z,12.50
2022-11-13T09:23:02.658Z,12.50
2022-11-13T09:29:00.583Z,12.60
2022-11-13T09:31:59.344Z,12.60
2022-11-13T09:34:53.027Z,12.60
2022-11-13T09:37:51.070Z,12.70
2022-11-13T09:44:49.220Z,12.80
2022-11-13T09:47:43.284Z,12.80
2022-11-13T09:50:32.969Z,12.90
2022-11-13T09:53:27.970Z,13.00
2022-11-13T09:56:42.521Z,13.00
2022-11-13T09:59:50.714Z,13.10
2022-11-13T10:03:27.998Z,13.20
2022-11-13T10:06:25.303Z,13.20
2022-11-13T10:09:24.668Z,13.30
2022-11-13T10:12:13.948Z,13.30
2022-11-13T10:15:03.641Z,13.40
2022-11-13T10:18:13.027Z,13.40
2022-11-13T10:21:15.613Z,13.50
2022-11-13T10:24:08.273Z,13.50
2022-11-13T10:27:00.119Z,13.50
2022-11-13T10:29:49.166Z,13.50
2022-11-13T10:32:35.103Z,13.50
2022-11-13T10:35:32.976Z,13.60
2022-11-13T10:38:24.569Z,13.60
2022-11-13T10:41:16.299Z,13.50
2022-11-13T10:44:22.406Z,13.60
2022-11-13T10:47:36.034Z,13.50
2022-11-13T10:50:27.945Z,13.60
2022-11-13T10:53:20.169Z,13.60
2022-11-13T10:56:29.778Z,13.60
2022-11-13T10:59:19.678Z,13.60
2022-11-13T11:02:11.694Z,13.60
2022-11-13T11:05:06.393Z,13.60
2022-11-13T11:07:54.657Z,13.70
2022-11-13T11:11:00.012Z,13.70
2022-11-13T11:13:45.556Z,13.80
2022-11-13T11:16:31.614Z,13.80
2022-11-13T11:19:20.213Z,13.80
2022-11-13T11:22:28.647Z,13.80
2022-11-13T11:25:27.886Z,13.80
2022-11-13T11:28:35.910Z,13.90
2022-11-13T11:31:45.277Z,13.90
2022-11-13T11:34:37.050Z,14.00
2022-11-13T11:37:27.958Z,14.00
2022-11-13T11:40:30.918Z,14.00
2022-11-13T11:43:20.255Z,14.10
2022-11-13T11:46:05.633Z,14.10
2022-11-13T11:48:51.225Z,14.10
2022-11-13T11:52:19.498Z,14.10
2022-11-13T11:55:26.963Z,14.20
2022-11-13T11:58:47.164Z,14.10
2022-11-13T12:02:06.351Z,14.20
2022-11-13T12:05:03.589Z,14.20
2022-11-13T12:08:17.939Z,14.30
2022-11-13T12:11:21.455Z,14.30
2022-11-13T12:14:21.296Z,14.30
2022-11-13T12:17:16.838Z,14.40
2022-11-13T12:20:10.510Z,14.40
2022-11-13T12:23:29.940Z,14.50
2022-11-13T12:26:57.984Z,14.60
2022-11-13T12:30:10.934Z,14.70
2022-11-13T12:33:23.085Z,14.70
2022-11-13T12:36:12.027Z,14.70
2022-11-13T12:39:16.043Z,14.70
2022-11-13T12:42:10.898Z,14.70
2022-11-13T12:45:09.532Z,14.80
2022-11-13T12:47:55.009Z,14.80
2022-11-13T12:50:40.570Z,14.80
2022-11-13T12:53:28.933Z,14.90
2022-11-13T12:56:20.507Z,14.90
2022-11-13T12:59:31.010Z,14.90
2022-11-13T13:02:52.768Z,14.90
2022-11-13T13:06:13.402Z,14.90
2022-11-13T13:09:46.710Z,14.90
2022-11-13T13:13:19.551Z,14.90
2022-11-13T13:16:08.907Z,14.90
2022-11-13T13:19:05.478Z,14.90
2022-11-13T13:21:50.685Z,15.00
2022-11-13T13:24:38.818Z,15.00
2022-11-13T13:27:28.034Z,15.00
2022-11-13T13:30:28.599Z,15.00
2022-11-13T13:33:21.304Z,15.10
2022-11-13T13:36:38.154Z,15.10
2022-11-13T13:40:01.839Z,15.10
2022-11-13T13:43:10.549Z,15.10
2022-11-13T13:46:24.726Z,15.10
2022-11-13T13:49:20.360Z,15.10
2022-11-13T13:52:05.985Z,15.10
2022-11-13T13:54:51.761Z,15.20
2022-11-13T13:57:42.200Z,15.20
2022-11-13T14:00:29.826Z,15.10
2022-11-13T14:03:23.187Z,15.10
2022-11-13T14:06:23.474Z,15.10
2022-11-13T14:09:11.523Z,15.00
2022-11-13T14:12:07.773Z,15.00
2022-11-13T14:14:55.426Z,15.20
2022-11-13T14:17:40.724Z,16.20
2022-11-13T14:20:26.337Z,17.10
2022-11-13T14:23:28.057Z,17.80
2022-11-13T14:26:14.221Z,18.20
2022-11-13T14:29:02.158Z,18.30
2022-11-13T14:31:48.046Z,18.70
2022-11-13T14:34:34.613Z,19.10
2022-11-13T14:37:27.234Z,19.30
2022-11-13T14:40:30.195Z,18.60
2022-11-13T14:43:34.416Z,17.60
2022-11-13T14:46:39.750Z,16.80
2022-11-13T14:49:36.905Z,16.30
2022-11-13T14:52:25.041Z,15.90
2022-11-13T14:55:26.066Z,15.70
2022-11-13T14:58:15.021Z,15.50
2022-11-13T15:01:23.748Z,15.30
2022-11-13T15:04:09.118Z,15.20
2022-11-13T15:07:00.772Z,15.20
2022-11-13T15:09:45.999Z,15.10
2022-11-13T15:12:31.702Z,15.00
2022-11-13T15:15:30.505Z,15.00
2022-11-13T15:18:19.477Z,14.90
2022-11-13T15:21:05.563Z,14.90
2022-11-13T15:23:51.336Z,14.80
2022-11-13T15:26:36.925Z,14.70
2022-11-13T15:29:22.654Z,14.60
2022-11-13T15:32:14.089Z,14.60
2022-11-13T15:35:00.237Z,14.50
2022-11-13T15:37:46.438Z,14.50
2022-11-13T15:40:32.052Z,14.40
2022-11-13T15:43:22.410Z,14.40
2022-11-13T15:46:14.802Z,14.30
2022-11-13T15:48:59.850Z,14.30
2022-11-13T15:51:49.816Z,14.20
2022-11-13T15:54:38.753Z,14.20
2022-11-13T15:57:26.823Z,14.10
2022-11-13T16:00:17.881Z,14.10
2022-11-13T16:03:04.735Z,14.00
2022-11-13T16:05:51.212Z,14.00
2022-11-13T16:08:40.521Z,13.90
2022-11-13T16:11:26.291Z,13.90
2022-11-13T16:14:12.388Z,13.80
2022-11-13T16:16:58.009Z,13.80
2022-11-13T16:19:44.099Z,13.70
2022-11-13T16:22:29.437Z,13.60
2022-11-13T16:25:18.579Z,13.60
2022-11-13T16:28:04.879Z,13.50
2022-11-13T16:30:50.988Z,13.50
2022-11-13T16:33:37.012Z,13.50
2022-11-13T16:36:22.866Z,13.40
2022-11-13T16:39:17.145Z,13.40
2022-11-13T16:42:05.919Z,13.40
2022-11-13T16:44:51.270Z,13.30
2022-11-13T16:47:40.767Z,13.30
2022-11-13T16:50:30.858Z,13.30
2022-11-13T16:53:16.515Z,13.20
2022-11-13T16:56:02.066Z,13.20
2022-11-13T16:58:47.874Z,13.20
2022-11-13T17:01:33.245Z,13.10
2022-11-13T17:04:19.794Z,13.10
2022-11-13T17:07:05.339Z,13.10
2022-11-13T17:10:10.020Z,13.00
2022-11-13T17:12:55.937Z,13.00
2022-11-13T17:15:41.592Z,13.00
2022-11-13T17:18:27.011Z,12.90
2022-11-13T17:21:12.510Z,12.90
2022-11-13T17:24:02.830Z,12.90
2022-11-13T17:26:48.862Z,12.80
2022-11-13T17:29:34.455Z,12.80
2022-11-13T17:32:20.039Z,12.70
2022-11-13T17:35:06.139Z,12.70
2022-11-13T17:37:53.479Z,12.60
2022-11-13T17:40:40.388Z,12.50
2022-11-13T17:43:26.865Z,12.40
2022-11-13T17:46:14.577Z,12.30
2022-11-13T17:49:00.220Z,12.30
2022-11-13T17:51:45.498Z,12.20
2022-11-13T17:54:31.661Z,12.20
2022-11-13T17:57:20.462Z,12.10
2022-11-13T18:00:09.076Z,12.10
2022-11-13T18:02:56.268Z,12.10
2022-11-13T18:05:42.628Z,12.00
2022-11-13T18:08:28.512Z,12.00
2022-11-13T18:11:20.770Z,11.90
2022-11-13T18:14:06.316Z,11.90
2022-11-13T18:16:51.984Z,11.90
2022-11-13T18:19:37.589Z,11.90
2022-11-13T18:22:22.936Z,11.80
2022-11-13T18:25:08.897Z,11.80
2022-11-13T18:27:57.083Z,11.80
2022-11-13T18:30:45.036Z,11.80
2022-11-13T18:33:34.147Z,11.80
2022-11-13T18:36:20.099Z,11.80
2022-11-13T18:39:06.209Z,11.70
2022-11-13T18:41:52.191Z,11.80
2022-11-13T18:44:38.958Z,11.70
2022-11-13T18:47:30.554Z,11.80
2022-11-13T18:50:24.199Z,11.70
2022-11-13T18:53:12.086Z,11.70
2022-11-13T18:56:04.437Z,11.70
2022-11-13T18:58:52.146Z,11.70
2022-11-13T19:01:40.290Z,11.70
2022-11-13T19:04:26.246Z,11.70
2022-11-13T19:07:12.772Z,11.60
2022-11-13T19:09:58.468Z,11.60
2022-11-13T19:12:44.037Z,11.60
2022-11-13T19:15:30.184Z,11.50
2022-11-13T19:18:18.442Z,11.50
2022-11-13T19:21:12.760Z,11.50
2022-11-13T19:23:59.906Z,11.40
2022-11-13T19:26:49.027Z,11.40
2022-11-13T19:29:35.101Z,11.40
2022-11-13T19:32:20.970Z,11.40
2022-11-13T19:35:07.200Z,11.30
2022-11-13T19:37:57.908Z,11.30
2022-11-13T19:40:50.168Z,11.30
2022-11-13T19:43:37.670Z,11.20
2022-11-13T19:46:23.278Z,11.20
2022-11-13T19:49:09.407Z,11.20
2022-11-13T19:51:55.411Z,11.20
2022-11-13T19:54:42.151Z,11.20
2022-11-13T19:57:27.946Z,11.20
2022-11-13T20:00:14.261Z,11.20
2022-11-13T20:03:03.790Z,11.20
2022-11-13T20:05:55.296Z,11.10
2022-11-13T20:08:42.303Z,11.10
2022-11-13T20:11:28.381Z,11.10
2022-11-13T20:14:14.323Z,11.00
2022-11-13T20:17:00.306Z,11.00
2022-11-13T20:19:47.560Z,11.00
2022-11-13T20:22:35.019Z,11.00
2022-11-13T20:25:21.211Z,10.90
2022-11-13T20:28:06.736Z,10.90
2022-11-13T20:30:52.422Z,10.90
2022-11-13T20:33:37.870Z,10.90
2022-11-13T20:36:24.727Z,10.80
2022-11-13T20:39:10.291Z,10.80
2022-11-13T20:41:56.153Z,10.70
2022-11-13T20:44:41.830Z,10.70
2022-11-13T20:47:27.575Z,10.70
2022-11-13T20:50:13.152Z,10.70
2022-11-13T20:52:59.208Z,10.70
2022-11-13T20:55:44.814Z,10.70
2022-11-13T20:58:33.673Z,10.60
2022-11-13T21:01:27.003Z,10.60
2022-11-13T21:04:12.661Z,10.60
2022-11-13T21:06:58.598Z,10.50
2022-11-13T21:09:48.809Z,10.50
2022-11-13T21:12:36.307Z,10.50
2022-11-13T21:15:21.540Z,10.50
2022-11-13T21:18:06.765Z,10.40
2022-11-13T21:20:52.588Z,10.40
2022-11-13T21:23:38.375Z,10.40
2022-11-13T21:26:24.476Z,10.40
2022-11-13T21:29:09.609Z,10.40
2022-11-13T21:31:55.160Z,10.40
2022-11-13T21:34:40.601Z,10.40
2022-11-13T21:37:26.831Z,10.30
2022-11-13T21:40:13.165Z,10.30
2022-11-13T21:42:58.937Z,10.30
2022-11-13T21:45:50.907Z,10.30
2022-11-13T21:48:38.081Z,10.20
2022-11-13T21:51:23.904Z,10.20
2022-11-13T21:54:10.442Z,10.10
2022-11-13T21:56:55.643Z,10.10
2022-11-13T21:59:41.824Z,10.10
